sensor_id;sensor_type;location;lat;lon;timestamp;P1;durP1;ratioP1;P2;durP2;ratioP2
6414;SDS011;3240;48.790;9.210;2022-11-20T00:00:31;16.83;;;8.97;;
6414;SDS011;3240;48.790;9.210;2022-11-20T00:02:59;18.17;;;10.07;;
6414;SDS011;3240;48.790;9.210;2022-11-20T00:05:27;17.23;;;9.67;;
6414;SDS011;3240;48.790;9.210;2022-11-20T00:07:56;20.93;;;10.53;;
6414;SDS011;3240;48.790;9.210;2022-11-20T00:10:24;21.07;;;10.60;;
6414;SDS011;3240;48.790;9.210;2022-11-20T00:12:53;16.90;;;10.30;;
6414;SDS011;3240;48.790;9.210;2022-11-20T00:15:21;20.00;;;12.57;;
6414;SDS011;3240;48.790;9.210;2022-11-20T00:17:49;19.53;;;10.07;;
6414;SDS011;3240;48.790;9.210;2022-11-20T00:20:17;16.97;;;10.23;;
6414;SDS011;3240;48.790;9.210;2022-11-20T00:22:46;18.90;;;10.60;;
6414;SDS011;3240;48.790;9.210;2022-11-20T00:25:14;21.03;;;11.03;;
6414;SDS011;3240;48.790;9.210;2022-11-20T00:27:43;25.37;;;11.27;;
6414;SDS011;3240;48.790;9.210;2022-11-20T00:30:11;19.87;;;11.20;;
6414;SDS011;3240;48.790;9.210;2022-11-20T00:32:39;21.00;;;11.63;;
6414;SDS011;3240;48.790;9.210;2022-11-20T00:35:08;18.27;;;10.70;;
6414;SDS011;3240;48.790;9.210;2022-11-20T00:37:36;18.17;;;10.53;;
6414;SDS011;3240;48.790;9.210;2022-11-20T00:40:05;18.87;;;10.97;;
6414;SDS011;3240;48.790;9.210;2022-11-20T00:42:33;22.40;;;11.67;;
6414;SDS011;3240;48.790;9.210;2022-11-20T00:45:02;19.10;;;10.60;;
6414;SDS011;3240;48.790;9.210;2022-11-20T00:47:30;20.47;;;10.80;;
6414;SDS011;3240;48.790;9.210;2022-11-20T00:49:58;20.13;;;10.63;;
6414;SDS011;3240;48.790;9.210;2022-11-20T00:52:27;20.83;;;10.40;;
6414;SDS011;3240;48.790;9.210;2022-11-20T00:54:55;16.03;;;10.10;;
6414;SDS011;3240;48.790;9.210;2022-11-20T00:57:23;19.43;;;11.47;;
6414;SDS011;3240;48.790;9.210;2022-11-20T00:59:52;21.27;;;10.13;;
6414;SDS011;3240;48.790;9.210;2022-11-20T01:02:20;18.77;;;10.73;;
6414;SDS011;3240;48.790;9.210;2022-11-20T01:04:48;21.27;;;10.73;;
6414;SDS011;3240;48.790;9.210;2022-11-20T01:07:17;16.97;;;10.70;;
6414;SDS011;3240;48.790;9.210;2022-11-20T01:09:45;20.47;;;10.80;;
6414;SDS011;3240;48.790;9.210;2022-11-20T01:12:13;19.73;;;11.17;;
6414;SDS011;3240;48.790;9.210;2022-11-20T01:14:42;19.40;;;11.53;;
6414;SDS011;3240;48.790;9.210;2022-11-20T01:17:10;20.63;;;11.47;;
6414;SDS011;3240;48.790;9.210;2022-11-20T01:19:38;20.47;;;11.07;;
6414;SDS011;3240;48.790;9.210;2022-11-20T01:22:07;20.47;;;12.60;;
6414;SDS011;3240;48.790;9.210;2022-11-20T01:24:35;20.80;;;11.13;;
6414;SDS011;3240;48.790;9.210;2022-11-20T01:27:03;19.33;;;11.03;;
6414;SDS011;3240;48.790;9.210;2022-11-20T01:29:32;21.50;;;10.80;;
6414;SDS011;3240;48.790;9.210;2022-11-20T01:32:00;17.13;;;10.73;;
6414;SDS011;3240;48.790;9.210;2022-11-20T01:34:28;20.40;;;11.77;;
6414;SDS011;3240;48.790;9.210;2022-11-20T01:36:57;18.23;;;10.83;;
6414;SDS011;3240;48.790;9.210;2022-11-20T01:39:25;20.80;;;10.70;;
6414;SDS011;3240;48.790;9.210;2022-11-20T01:41:54;18.43;;;9.00;;
6414;SDS011;3240;48.790;9.210;2022-11-20T01:47:02;11.50;;;6.70;;
6414;SDS011;3240;48.790;9.210;2022-11-20T01:49:34;11.83;;;6.93;;
6414;SDS011;3240;48.790;9.210;2022-11-20T01:52:03;12.70;;;7.77;;
6414;SDS011;3240;48.790;9.210;2022-11-20T01:54:32;9.67;;;7.03;;
6414;SDS011;3240;48.790;9.210;2022-11-20T01:56:59;13.60;;;6.27;;
6414;SDS011;3240;48.790;9.210;2022-11-20T01:59:27;7.00;;;4.20;;
6414;SDS011;3240;48.790;9.210;2022-11-20T02:01:55;5.53;;;3.63;;
6414;SDS011;3240;48.790;9.210;2022-11-20T02:04:24;7.07;;;3.60;;
6414;SDS011;3240;48.790;9.210;2022-11-20T02:06:57;3.90;;;2.87;;
6414;SDS011;3240;48.790;9.210;2022-11-20T02:09:23;4.70;;;2.80;;
6414;SDS011;3240;48.790;9.210;2022-11-20T02:11:51;4.22;;;2.80;;
6414;SDS011;3240;48.790;9.210;2022-11-20T02:14:20;3.30;;;2.77;;
6414;SDS011;3240;48.790;9.210;2022-11-20T02:16:48;3.50;;;3.07;;
6414;SDS011;3240;48.790;9.210;2022-11-20T02:19:20;6.13;;;2.70;;
6414;SDS011;3240;48.790;9.210;2022-11-20T02:21:49;4.17;;;2.77;;
6414;SDS011;3240;48.790;9.210;2022-11-20T02:24:17;4.80;;;2.60;;
6414;SDS011;3240;48.790;9.210;2022-11-20T02:26:49;6.03;;;2.60;;
6414;SDS011;3240;48.790;9.210;2022-11-20T02:29:16;3.17;;;2.20;;
6414;SDS011;3240;48.790;9.210;2022-11-20T02:31:43;4.77;;;2.80;;
6414;SDS011;3240;48.790;9.210;2022-11-20T02:34:12;7.70;;;3.00;;
6414;SDS011;3240;48.790;9.210;2022-11-20T02:36:40;4.47;;;2.77;;
6414;SDS011;3240;48.790;9.210;2022-11-20T02:39:09;4.77;;;2.90;;
6414;SDS011;3240;48.790;9.210;2022-11-20T02:41:37;4.07;;;2.53;;
6414;SDS011;3240;48.790;9.210;2022-11-20T02:44:05;3.67;;;2.47;;
6414;SDS011;3240;48.790;9.210;2022-11-20T02:46:33;4.87;;;2.90;;
6414;SDS011;3240;48.790;9.210;2022-11-20T02:49:03;5.13;;;3.10;;
6414;SDS011;3240;48.790;9.210;2022-11-20T02:51:31;4.43;;;2.77;;
6414;SDS011;3240;48.790;9.210;2022-11-20T02:54:00;5.70;;;2.83;;
6414;SDS011;3240;48.790;9.210;2022-11-20T02:56:28;3.57;;;3.00;;
6414;SDS011;3240;48.790;9.210;2022-11-20T02:58:56;3.83;;;2.60;;
6414;SDS011;3240;48.790;9.210;2022-11-20T03:01:24;4.23;;;3.00;;
6414;SDS011;3240;48.790;9.210;2022-11-20T03:03:53;3.50;;;2.60;;
6414;SDS011;3240;48.790;9.210;2022-11-20T03:06:21;4.67;;;2.97;;
6414;SDS011;3240;48.790;9.210;2022-11-20T03:08:49;4.30;;;2.73;;
6414;SDS011;3240;48.790;9.210;2022-11-20T03:11:18;4.23;;;3.17;;
6414;SDS011;3240;48.790;9.210;2022-11-20T03:13:46;2.50;;;2.03;;
6414;SDS011;3240;48.790;9.210;2022-11-20T03:16:15;8.17;;;3.00;;
6414;SDS011;3240;48.790;9.210;2022-11-20T03:18:43;6.77;;;2.77;;
6414;SDS011;3240;48.790;9.210;2022-11-20T03:21:12;3.73;;;2.60;;
6414;SDS011;3240;48.790;9.210;2022-11-20T03:23:40;3.57;;;2.50;;
6414;SDS011;3240;48.790;9.210;2022-11-20T03:26:12;3.60;;;2.70;;
6414;SDS011;3240;48.790;9.210;2022-11-20T03:28:39;5.17;;;2.70;;
6414;SDS011;3240;48.790;9.210;2022-11-20T03:31:09;5.37;;;3.30;;
6414;SDS011;3240;48.790;9.210;2022-11-20T03:33:37;5.17;;;3.10;;
6414;SDS011;3240;48.790;9.210;2022-11-20T03:36:05;3.73;;;2.93;;
6414;SDS011;3240;48.790;9.210;2022-11-20T03:38:33;3.10;;;2.80;;
6414;SDS011;3240;48.790;9.210;2022-11-20T03:41:02;4.17;;;3.10;;
6414;SDS011;3240;48.790;9.210;2022-11-20T03:43:30;5.20;;;3.17;;
6414;SDS011;3240;48.790;9.210;2022-11-20T03:45:58;3.53;;;2.37;;
6414;SDS011;3240;48.790;9.210;2022-11-20T03:48:27;6.70;;;3.37;;
6414;SDS011;3240;48.790;9.210;2022-11-20T03:51:06;4.30;;;2.50;;
6414;SDS011;3240;48.790;9.210;2022-11-20T03:53:24;4.57;;;3.40;;
6414;SDS011;3240;48.790;9.210;2022-11-20T03:55:52;4.70;;;2.87;;
6414;SDS011;3240;48.790;9.210;2022-11-20T03:58:21;4.60;;;3.10;;
6414;SDS011;3240;48.790;9.210;2022-11-20T04:00:49;4.80;;;2.50;;
6414;SDS011;3240;48.790;9.210;2022-11-20T04:03:17;2.70;;;2.40;;
6414;SDS011;3240;48.790;9.210;2022-11-20T04:05:46;4.30;;;2.70;;
6414;SDS011;3240;48.790;9.210;2022-11-20T04:08:14;4.53;;;3.00;;
6414;SDS011;3240;48.790;9.210;2022-11-20T04:10:42;7.77;;;2.87;;
6414;SDS011;3240;48.790;9.210;2022-11-20T04:13:11;5.30;;;2.80;;
6414;SDS011;3240;48.790;9.210;2022-11-20T04:15:39;4.03;;;2.97;;
6414;SDS011;3240;48.790;9.210;2022-11-20T04:18:07;4.20;;;2.83;;
6414;SDS011;3240;48.790;9.210;2022-11-20T04:20:36;3.90;;;2.87;;
6414;SDS011;3240;48.790;9.210;2022-11-20T04:23:04;4.53;;;2.97;;
6414;SDS011;3240;48.790;9.210;2022-11-20T04:25:32;5.70;;;2.90;;
6414;SDS011;3240;48.790;9.210;2022-11-20T04:28:00;3.43;;;2.80;;
6414;SDS011;3240;48.790;9.210;2022-11-20T04:30:29;3.97;;;2.73;;
6414;SDS011;3240;48.790;9.210;2022-11-20T04:32:57;4.90;;;2.20;;
6414;SDS011;3240;48.790;9.210;2022-11-20T04:35:25;4.33;;;2.40;;
6414;SDS011;3240;48.790;9.210;2022-11-20T04:37:53;3.20;;;2.67;;
6414;SDS011;3240;48.790;9.210;2022-11-20T04:40:21;5.73;;;2.97;;
6414;SDS011;3240;48.790;9.210;2022-11-20T04:42:50;4.50;;;3.30;;
6414;SDS011;3240;48.790;9.210;2022-11-20T04:45:18;7.30;;;2.90;;
6414;SDS011;3240;48.790;9.210;2022-11-20T04:47:46;7.60;;;3.83;;
6414;SDS011;3240;48.790;9.210;2022-11-20T04:50:15;3.70;;;2.90;;
6414;SDS011;3240;48.790;9.210;2022-11-20T04:52:43;5.50;;;2.97;;
6414;SDS011;3240;48.790;9.210;2022-11-20T04:55:11;5.67;;;3.23;;
6414;SDS011;3240;48.790;9.210;2022-11-20T04:57:40;3.70;;;2.73;;
6414;SDS011;3240;48.790;9.210;2022-11-20T05:00:08;4.70;;;3.53;;
6414;SDS011;3240;48.790;9.210;2022-11-20T05:02:37;3.33;;;2.83;;
6414;SDS011;3240;48.790;9.210;2022-11-20T05:05:05;6.20;;;3.67;;
6414;SDS011;3240;48.790;9.210;2022-11-20T05:07:34;5.60;;;2.90;;
6414;SDS011;3240;48.790;9.210;2022-11-20T05:10:02;5.20;;;3.40;;
6414;SDS011;3240;48.790;9.210;2022-11-20T05:12:31;5.13;;;3.57;;
6414;SDS011;3240;48.790;9.210;2022-11-20T05:14:59;4.70;;;3.30;;
6414;SDS011;3240;48.790;9.210;2022-11-20T05:17:27;5.33;;;2.80;;
6414;SDS011;3240;48.790;9.210;2022-11-20T05:19:55;9.20;;;3.10;;
6414;SDS011;3240;48.790;9.210;2022-11-20T05:22:24;7.80;;;3.40;;
6414;SDS011;3240;48.790;9.210;2022-11-20T05:24:52;5.03;;;2.93;;
6414;SDS011;3240;48.790;9.210;2022-11-20T05:27:20;4.40;;;3.10;;
6414;SDS011;3240;48.790;9.210;2022-11-20T05:29:49;5.37;;;2.47;;
6414;SDS011;3240;48.790;9.210;2022-11-20T05:32:17;6.30;;;3.40;;
6414;SDS011;3240;48.790;9.210;2022-11-20T05:34:45;5.20;;;3.33;;
6414;SDS011;3240;48.790;9.210;2022-11-20T05:37:14;6.93;;;3.17;;
6414;SDS011;3240;48.790;9.210;2022-11-20T05:39:42;4.47;;;2.97;;
6414;SDS011;3240;48.790;9.210;2022-11-20T05:42:10;3.73;;;2.60;;
6414;SDS011;3240;48.790;9.210;2022-11-20T05:44:44;3.83;;;2.83;;
6414;SDS011;3240;48.790;9.210;2022-11-20T05:47:12;4.27;;;3.03;;
6414;SDS011;3240;48.790;9.210;2022-11-20T05:49:41;4.30;;;3.03;;
6414;SDS011;3240;48.790;9.210;2022-11-20T05:52:09;3.10;;;2.53;;
6414;SDS011;3240;48.790;9.210;2022-11-20T05:54:37;3.10;;;2.60;;
6414;SDS011;3240;48.790;9.210;2022-11-20T05:57:06;4.20;;;2.80;;
6414;SDS011;3240;48.790;9.210;2022-11-20T05:59:34;4.47;;;2.93;;
6414;SDS011;3240;48.790;9.210;2022-11-20T06:02:02;2.53;;;2.33;;
6414;SDS011;3240;48.790;9.210;2022-11-20T06:04:31;6.03;;;2.63;;
6414;SDS011;3240;48.790;9.210;2022-11-20T06:06:59;2.77;;;2.20;;
6414;SDS011;3240;48.790;9.210;2022-11-20T06:09:27;2.47;;;2.20;;
6414;SDS011;3240;48.790;9.210;2022-11-20T06:11:56;3.40;;;2.73;;
6414;SDS011;3240;48.790;9.210;2022-11-20T06:14:24;3.70;;;2.70;;
6414;SDS011;3240;48.790;9.210;2022-11-20T06:16:52;4.00;;;2.47;;
6414;SDS011;3240;48.790;9.210;2022-11-20T06:19:21;4.07;;;2.50;;
6414;SDS011;3240;48.790;9.210;2022-11-20T06:21:49;3.70;;;2.50;;
6414;SDS011;3240;48.790;9.210;2022-11-20T06:24:17;4.07;;;2.37;;
6414;SDS011;3240;48.790;9.210;2022-11-20T06:26:46;2.90;;;2.30;;
6414;SDS011;3240;48.790;9.210;2022-11-20T06:29:14;3.80;;;2.40;;
6414;SDS011;3240;48.790;9.210;2022-11-20T06:31:42;4.10;;;2.80;;
6414;SDS011;3240;48.790;9.210;2022-11-20T06:34:11;3.90;;;2.50;;
6414;SDS011;3240;48.790;9.210;2022-11-20T06:36:39;3.60;;;2.63;;
6414;SDS011;3240;48.790;9.210;2022-11-20T06:39:07;4.63;;;2.60;;
6414;SDS011;3240;48.790;9.210;2022-11-20T06:41:36;3.27;;;2.40;;
6414;SDS011;3240;48.790;9.210;2022-11-20T06:44:04;5.17;;;2.30;;
6414;SDS011;3240;48.790;9.210;2022-11-20T06:46:32;4.13;;;2.20;;
6414;SDS011;3240;48.790;9.210;2022-11-20T06:49:00;4.00;;;2.30;;
6414;SDS011;3240;48.790;9.210;2022-11-20T06:51:29;2.83;;;2.07;;
6414;SDS011;3240;48.790;9.210;2022-11-20T06:53:57;2.53;;;2.17;;
6414;SDS011;3240;48.790;9.210;2022-11-20T06:56:25;2.70;;;2.00;;
6414;SDS011;3240;48.790;9.210;2022-11-20T06:58:54;2.70;;;2.23;;
6414;SDS011;3240;48.790;9.210;2022-11-20T07:01:22;4.30;;;2.53;;
6414;SDS011;3240;48.790;9.210;2022-11-20T07:03:50;3.10;;;2.10;;
6414;SDS011;3240;48.790;9.210;2022-11-20T07:06:19;4.23;;;2.30;;
6414;SDS011;3240;48.790;9.210;2022-11-20T07:08:47;3.43;;;1.97;;
6414;SDS011;3240;48.790;9.210;2022-11-20T07:11:15;3.00;;;2.07;;
6414;SDS011;3240;48.790;9.210;2022-11-20T07:13:43;4.53;;;2.50;;
6414;SDS011;3240;48.790;9.210;2022-11-20T07:16:11;4.37;;;2.50;;
6414;SDS011;3240;48.790;9.210;2022-11-20T07:18:42;3.97;;;2.03;;
6414;SDS011;3240;48.790;9.210;2022-11-20T07:21:10;4.07;;;2.20;;
6414;SDS011;3240;48.790;9.210;2022-11-20T07:23:38;4.47;;;2.50;;
6414;SDS011;3240;48.790;9.210;2022-11-20T07:26:07;2.50;;;2.30;;
6414;SDS011;3240;48.790;9.210;2022-11-20T07:28:35;2.77;;;1.97;;
6414;SDS011;3240;48.790;9.210;2022-11-20T07:31:03;3.53;;;2.40;;
6414;SDS011;3240;48.790;9.210;2022-11-20T07:33:32;3.00;;;2.20;;
6414;SDS011;3240;48.790;9.210;2022-11-20T07:36:00;4.00;;;2.10;;
6414;SDS011;3240;48.790;9.210;2022-11-20T07:38:28;4.83;;;2.30;;
6414;SDS011;3240;48.790;9.210;2022-11-20T07:40:57;2.30;;;2.10;;
6414;SDS011;3240;48.790;9.210;2022-11-20T07:43:26;3.33;;;2.03;;
6414;SDS011;3240;48.790;9.210;2022-11-20T07:45:55;2.87;;;2.17;;
6414;SDS011;3240;48.790;9.210;2022-11-20T07:48:23;2.43;;;2.20;;
6414;SDS011;3240;48.790;9.210;2022-11-20T07:50:53;2.60;;;2.03;;
6414;SDS011;3240;48.790;9.210;2022-11-20T07:53:21;2.73;;;2.07;;
6414;SDS011;3240;48.790;9.210;2022-11-20T07:55:49;2.53;;;2.20;;
6414;SDS011;3240;48.790;9.210;2022-11-20T07:58:18;7.13;;;1.73;;
6414;SDS011;3240;48.790;9.210;2022-11-20T08:00:46;2.30;;;1.87;;
6414;SDS011;3240;48.790;9.210;2022-11-20T08:03:14;3.87;;;2.30;;
6414;SDS011;3240;48.790;9.210;2022-11-20T08:05:42;2.87;;;1.90;;
6414;SDS011;3240;48.790;9.210;2022-11-20T08:08:11;3.30;;;2.20;;
6414;SDS011;3240;48.790;9.210;2022-11-20T08:10:39;4.40;;;2.40;;
6414;SDS011;3240;48.790;9.210;2022-11-20T08:13:08;4.03;;;1.83;;
6414;SDS011;3240;48.790;9.210;2022-11-20T08:15:47;2.63;;;1.80;;
6414;SDS011;3240;48.790;9.210;2022-11-20T08:18:10;2.90;;;1.80;;
6414;SDS011;3240;48.790;9.210;2022-11-20T08:20:39;3.13;;;1.70;;
6414;SDS011;3240;48.790;9.210;2022-11-20T08:23:07;3.87;;;1.77;;
6414;SDS011;3240;48.790;9.210;2022-11-20T08:25:36;3.27;;;1.83;;
6414;SDS011;3240;48.790;9.210;2022-11-20T08:28:05;2.00;;;1.63;;
6414;SDS011;3240;48.790;9.210;2022-11-20T08:30:32;4.00;;;2.10;;
6414;SDS011;3240;48.790;9.210;2022-11-20T08:33:02;2.13;;;1.93;;
6414;SDS011;3240;48.790;9.210;2022-11-20T08:35:32;3.53;;;1.60;;
6414;SDS011;3240;48.790;9.210;2022-11-20T08:37:58;2.30;;;1.87;;
6414;SDS011;3240;48.790;9.210;2022-11-20T08:40:26;2.07;;;1.63;;
6414;SDS011;3240;48.790;9.210;2022-11-20T08:42:54;2.90;;;1.90;;
6414;SDS011;3240;48.790;9.210;2022-11-20T08:45:22;2.53;;;1.43;;
6414;SDS011;3240;48.790;9.210;2022-11-20T08:47:51;2.00;;;1.53;;
6414;SDS011;3240;48.790;9.210;2022-11-20T08:50:19;2.37;;;1.30;;
6414;SDS011;3240;48.790;9.210;2022-11-20T08:52:49;1.57;;;1.43;;
6414;SDS011;3240;48.790;9.210;2022-11-20T08:55:17;3.90;;;1.60;;
6414;SDS011;3240;48.790;9.210;2022-11-20T08:57:45;4.20;;;1.57;;
6414;SDS011;3240;48.790;9.210;2022-11-20T09:00:14;2.03;;;1.37;;
6414;SDS011;3240;48.790;9.210;2022-11-20T09:02:42;1.50;;;1.40;;
6414;SDS011;3240;48.790;9.210;2022-11-20T09:05:10;3.50;;;1.77;;
6414;SDS011;3240;48.790;9.210;2022-11-20T09:07:38;1.90;;;1.30;;
6414;SDS011;3240;48.790;9.210;2022-11-20T09:10:06;1.40;;;1.20;;
6414;SDS011;3240;48.790;9.210;2022-11-20T09:12:34;2.13;;;1.70;;
6414;SDS011;3240;48.790;9.210;2022-11-20T09:15:03;2.63;;;1.53;;
6414;SDS011;3240;48.790;9.210;2022-11-20T09:17:31;3.10;;;1.50;;
6414;SDS011;3240;48.790;9.210;2022-11-20T09:19:59;1.20;;;1.00;;
6414;SDS011;3240;48.790;9.210;2022-11-20T09:22:27;2.20;;;1.50;;
6414;SDS011;3240;48.790;9.210;2022-11-20T09:24:55;2.63;;;1.40;;
6414;SDS011;3240;48.790;9.210;2022-11-20T09:27:24;1.30;;;1.13;;
6414;SDS011;3240;48.790;9.210;2022-11-20T09:29:52;2.40;;;1.20;;
6414;SDS011;3240;48.790;9.210;2022-11-20T09:32:20;2.50;;;1.20;;
6414;SDS011;3240;48.790;9.210;2022-11-20T09:34:49;1.70;;;1.20;;
6414;SDS011;3240;48.790;9.210;2022-11-20T09:37:17;2.70;;;1.57;;
6414;SDS011;3240;48.790;9.210;2022-11-20T09:39:45;1.70;;;1.10;;
6414;SDS011;3240;48.790;9.210;2022-11-20T09:42:21;1.10;;;0.90;;
6414;SDS011;3240;48.790;9.210;2022-11-20T09:44:49;4.33;;;1.10;;
6414;SDS011;3240;48.790;9.210;2022-11-20T09:47:26;1.17;;;0.83;;
6414;SDS011;3240;48.790;9.210;2022-11-20T09:49:58;0.90;;;0.70;;
6414;SDS011;3240;48.790;9.210;2022-11-20T09:52:31;1.67;;;0.90;;
6414;SDS011;3240;48.790;9.210;2022-11-20T09:54:54;1.17;;;0.87;;
6414;SDS011;3240;48.790;9.210;2022-11-20T09:57:25;0.90;;;0.63;;
6414;SDS011;3240;48.790;9.210;2022-11-20T09:59:52;3.93;;;0.90;;
6414;SDS011;3240;48.790;9.210;2022-11-20T10:02:27;1.53;;;1.07;;
6414;SDS011;3240;48.790;9.210;2022-11-20T10:04:52;1.10;;;0.60;;
6414;SDS011;3240;48.790;9.210;2022-11-20T10:07:21;0.90;;;0.60;;
6414;SDS011;3240;48.790;9.210;2022-11-20T10:09:50;0.80;;;0.60;;
6414;SDS011;3240;48.790;9.210;2022-11-20T10:12:20;1.73;;;1.10;;
6414;SDS011;3240;48.790;9.210;2022-11-20T10:14:59;1.47;;;0.80;;
6414;SDS011;3240;48.790;9.210;2022-11-20T10:17:30;0.80;;;0.63;;
6414;SDS011;3240;48.790;9.210;2022-11-20T10:22:34;1.27;;;0.70;;
6414;SDS011;3240;48.790;9.210;2022-11-20T10:25:05;2.10;;;0.63;;
6414;SDS011;3240;48.790;9.210;2022-11-20T10:27:45;0.80;;;0.67;;
6414;SDS011;3240;48.790;9.210;2022-11-20T10:30:12;2.60;;;0.83;;
6414;SDS011;3240;48.790;9.210;2022-11-20T10:32:41;0.60;;;0.60;;
6414;SDS011;3240;48.790;9.210;2022-11-20T10:35:33;1.30;;;1.20;;
6414;SDS011;3240;48.790;9.210;2022-11-20T10:37:58;2.30;;;1.17;;
6414;SDS011;3240;48.790;9.210;2022-11-20T10:40:35;0.80;;;0.70;;
6414;SDS011;3240;48.790;9.210;2022-11-20T10:43:07;1.13;;;0.80;;
6414;SDS011;3240;48.790;9.210;2022-11-20T10:45:35;1.70;;;0.87;;
6414;SDS011;3240;48.790;9.210;2022-11-20T10:50:35;3.47;;;1.13;;
6414;SDS011;3240;48.790;9.210;2022-11-20T10:53:40;1.10;;;0.90;;
6414;SDS011;3240;48.790;9.210;2022-11-20T10:55:50;1.33;;;1.13;;
6414;SDS011;3240;48.790;9.210;2022-11-20T10:58:20;1.63;;;1.27;;
6414;SDS011;3240;48.790;9.210;2022-11-20T11:00:45;1.10;;;0.77;;
6414;SDS011;3240;48.790;9.210;2022-11-20T11:03:20;1.03;;;0.93;;
6414;SDS011;3240;48.790;9.210;2022-11-20T11:05:53;0.80;;;0.70;;
6414;SDS011;3240;48.790;9.210;2022-11-20T11:08:19;2.17;;;1.20;;
6414;SDS011;3240;48.790;9.210;2022-11-20T11:11:20;1.40;;;1.10;;
6414;SDS011;3240;48.790;9.210;2022-11-20T11:13:30;1.13;;;1.00;;
6414;SDS011;3240;48.790;9.210;2022-11-20T11:15:58;3.73;;;1.30;;
6414;SDS011;3240;48.790;9.210;2022-11-20T11:18:29;3.07;;;1.27;;
6414;SDS011;3240;48.790;9.210;2022-11-20T11:20:57;4.00;;;1.00;;
6414;SDS011;3240;48.790;9.210;2022-11-20T11:31:22;1.67;;;1.00;;
6414;SDS011;3240;48.790;9.210;2022-11-20T11:33:49;3.40;;;1.50;;
6414;SDS011;3240;48.790;9.210;2022-11-20T11:36:19;1.40;;;1.00;;
6414;SDS011;3240;48.790;9.210;2022-11-20T11:38:48;2.60;;;1.53;;
6414;SDS011;3240;48.790;9.210;2022-11-20T11:41:16;4.43;;;1.63;;
6414;SDS011;3240;48.790;9.210;2022-11-20T11:43:48;2.50;;;1.63;;
6414;SDS011;3240;48.790;9.210;2022-11-20T11:46:23;1.40;;;1.30;;
6414;SDS011;3240;48.790;9.210;2022-11-20T11:48:56;3.67;;;1.57;;
6414;SDS011;3240;48.790;9.210;2022-11-20T11:51:26;2.00;;;1.80;;
6414;SDS011;3240;48.790;9.210;2022-11-20T11:53:56;2.70;;;1.50;;
6414;SDS011;3240;48.790;9.210;2022-11-20T11:56:28;2.00;;;1.40;;
6414;SDS011;3240;48.790;9.210;2022-11-20T11:58:56;3.03;;;1.60;;
6414;SDS011;3240;48.790;9.210;2022-11-20T12:04:16;2.60;;;1.50;;
6414;SDS011;3240;48.790;9.210;2022-11-20T12:06:34;3.03;;;1.60;;
6414;SDS011;3240;48.790;9.210;2022-11-20T12:09:03;2.57;;;1.43;;
6414;SDS011;3240;48.790;9.210;2022-11-20T12:11:33;2.83;;;1.40;;
6414;SDS011;3240;48.790;9.210;2022-11-20T12:14:02;3.23;;;1.30;;
6414;SDS011;3240;48.790;9.210;2022-11-20T12:16:29;2.20;;;1.30;;
6414;SDS011;3240;48.790;9.210;2022-11-20T12:18:57;4.83;;;1.27;;
6414;SDS011;3240;48.790;9.210;2022-11-20T12:21:28;1.97;;;0.90;;
6414;SDS011;3240;48.790;9.210;2022-11-20T12:24:00;3.13;;;1.10;;
6414;SDS011;3240;48.790;9.210;2022-11-20T12:26:30;4.13;;;1.10;;
6414;SDS011;3240;48.790;9.210;2022-11-20T12:28:56;1.77;;;1.17;;
6414;SDS011;3240;48.790;9.210;2022-11-20T12:31:28;4.50;;;1.23;;
6414;SDS011;3240;48.790;9.210;2022-11-20T12:33:55;1.80;;;1.10;;
6414;SDS011;3240;48.790;9.210;2022-11-20T12:36:32;2.27;;;1.20;;
6414;SDS011;3240;48.790;9.210;2022-11-20T12:39:03;7.07;;;1.33;;
6414;SDS011;3240;48.790;9.210;2022-11-20T12:44:24;5.93;;;1.93;;
6414;SDS011;3240;48.790;9.210;2022-11-20T12:47:09;5.03;;;0.90;;
6414;SDS011;3240;48.790;9.210;2022-11-20T12:49:51;5.20;;;1.20;;
6414;SDS011;3240;48.790;9.210;2022-11-20T12:52:18;1.10;;;0.60;;
6414;SDS011;3240;48.790;9.210;2022-11-20T12:54:46;2.00;;;0.83;;
6414;SDS011;3240;48.790;9.210;2022-11-20T13:00:21;1.90;;;0.97;;
6414;SDS011;3240;48.790;9.210;2022-11-20T13:07:50;3.70;;;0.90;;
6414;SDS011;3240;48.790;9.210;2022-11-20T13:10:25;2.77;;;0.80;;
6414;SDS011;3240;48.790;9.210;2022-11-20T13:12:52;2.30;;;1.00;;
6414;SDS011;3240;48.790;9.210;2022-11-20T13:15:24;5.53;;;1.10;;
6414;SDS011;3240;48.790;9.210;2022-11-20T13:17:47;2.50;;;0.90;;
6414;SDS011;3240;48.790;9.210;2022-11-20T13:20:16;1.60;;;0.97;;
6414;SDS011;3240;48.790;9.210;2022-11-20T13:22:45;5.53;;;0.90;;
6414;SDS011;3240;48.790;9.210;2022-11-20T13:27:47;2.43;;;0.80;;
6414;SDS011;3240;48.790;9.210;2022-11-20T13:30:15;1.07;;;0.63;;
6414;SDS011;3240;48.790;9.210;2022-11-20T13:32:49;3.20;;;0.90;;
6414;SDS011;3240;48.790;9.210;2022-11-20T13:38:22;3.90;;;0.80;;
6414;SDS011;3240;48.790;9.210;2022-11-20T13:40:35;3.60;;;0.90;;
6414;SDS011;3240;48.790;9.210;2022-11-20T13:43:14;3.13;;;1.00;;
6414;SDS011;3240;48.790;9.210;2022-11-20T13:45:36;8.37;;;1.00;;
6414;SDS011;3240;48.790;9.210;2022-11-20T13:48:15;1.00;;;0.60;;
6414;SDS011;3240;48.790;9.210;2022-11-20T13:50:40;2.20;;;0.97;;
6414;SDS011;3240;48.790;9.210;2022-11-20T13:55:42;1.70;;;0.87;;
6414;SDS011;3240;48.790;9.210;2022-11-20T13:58:23;1.37;;;0.70;;
6414;SDS011;3240;48.790;9.210;2022-11-20T14:00:55;4.97;;;1.50;;
6414;SDS011;3240;48.790;9.210;2022-11-20T14:03:21;11.53;;;1.00;;
6414;SDS011;3240;48.790;9.210;2022-11-20T14:05:55;3.63;;;1.00;;
6414;SDS011;3240;48.790;9.210;2022-11-20T14:08:27;1.97;;;1.00;;
6414;SDS011;3240;48.790;9.210;2022-11-20T14:13:28;1.00;;;0.70;;
6414;SDS011;3240;48.790;9.210;2022-11-20T14:15:56;2.53;;;0.77;;
6414;SDS011;3240;48.790;9.210;2022-11-20T14:18:25;2.30;;;0.80;;
6414;SDS011;3240;48.790;9.210;2022-11-20T14:20:53;2.20;;;0.83;;
6414;SDS011;3240;48.790;9.210;2022-11-20T14:23:24;1.40;;;1.10;;
6414;SDS011;3240;48.790;9.210;2022-11-20T14:25:51;1.60;;;0.70;;
6414;SDS011;3240;48.790;9.210;2022-11-20T14:28:23;6.47;;;1.17;;
6414;SDS011;3240;48.790;9.210;2022-11-20T14:30:48;3.83;;;1.20;;
6414;SDS011;3240;48.790;9.210;2022-11-20T14:33:16;2.73;;;1.30;;
6414;SDS011;3240;48.790;9.210;2022-11-20T14:35:45;3.87;;;1.53;;
6414;SDS011;3240;48.790;9.210;2022-11-20T14:38:14;3.10;;;1.20;;
6414;SDS011;3240;48.790;9.210;2022-11-20T14:40:41;1.63;;;1.07;;
6414;SDS011;3240;48.790;9.210;2022-11-20T14:45:48;2.27;;;1.30;;
6414;SDS011;3240;48.790;9.210;2022-11-20T14:48:14;2.40;;;1.20;;
6414;SDS011;3240;48.790;9.210;2022-11-20T14:50:43;2.73;;;0.90;;
6414;SDS011;3240;48.790;9.210;2022-11-20T14:53:11;7.83;;;1.53;;
6414;SDS011;3240;48.790;9.210;2022-11-20T14:55:39;3.13;;;0.97;;
6414;SDS011;3240;48.790;9.210;2022-11-20T15:00:42;2.30;;;1.00;;
6414;SDS011;3240;48.790;9.210;2022-11-20T15:03:14;1.53;;;1.07;;
6414;SDS011;3240;48.790;9.210;2022-11-20T15:05:44;3.43;;;1.10;;
6414;SDS011;3240;48.790;9.210;2022-11-20T15:08:11;1.47;;;1.27;;
6414;SDS011;3240;48.790;9.210;2022-11-20T15:10:45;2.40;;;1.20;;
6414;SDS011;3240;48.790;9.210;2022-11-20T15:13:11;5.33;;;2.00;;
6414;SDS011;3240;48.790;9.210;2022-11-20T15:15:44;3.10;;;1.10;;
6414;SDS011;3240;48.790;9.210;2022-11-20T15:18:13;2.03;;;1.20;;
6414;SDS011;3240;48.790;9.210;2022-11-20T15:20:40;2.73;;;1.03;;
6414;SDS011;3240;48.790;9.210;2022-11-20T15:23:10;5.23;;;1.00;;
6414;SDS011;3240;48.790;9.210;2022-11-20T15:25:37;4.20;;;1.20;;
6414;SDS011;3240;48.790;9.210;2022-11-20T15:28:12;2.53;;;1.53;;
6414;SDS011;3240;48.790;9.210;2022-11-20T15:30:34;3.57;;;1.90;;
6414;SDS011;3240;48.790;9.210;2022-11-20T15:33:02;2.30;;;1.20;;
6414;SDS011;3240;48.790;9.210;2022-11-20T15:35:30;2.03;;;1.20;;
6414;SDS011;3240;48.790;9.210;2022-11-20T15:37:59;2.83;;;1.70;;
6414;SDS011;3240;48.790;9.210;2022-11-20T15:40:27;1.90;;;1.30;;
6414;SDS011;3240;48.790;9.210;2022-11-20T15:42:55;2.57;;;1.30;;
6414;SDS011;3240;48.790;9.210;2022-11-20T15:45:31;3.60;;;1.90;;
6414;SDS011;3240;48.790;9.210;2022-11-20T15:47:58;2.53;;;1.50;;
6414;SDS011;3240;48.790;9.210;2022-11-20T15:50:29;2.70;;;1.20;;
6414;SDS011;3240;48.790;9.210;2022-11-20T15:52:55;3.43;;;1.30;;
6414;SDS011;3240;48.790;9.210;2022-11-20T15:55:23;4.20;;;1.47;;
6414;SDS011;3240;48.790;9.210;2022-11-20T15:57:52;3.07;;;1.30;;
6414;SDS011;3240;48.790;9.210;2022-11-20T16:00:20;2.17;;;1.20;;
6414;SDS011;3240;48.790;9.210;2022-11-20T16:02:48;3.70;;;1.90;;
6414;SDS011;3240;48.790;9.210;2022-11-20T16:05:16;2.57;;;1.40;;
6414;SDS011;3240;48.790;9.210;2022-11-20T16:07:45;3.70;;;1.63;;